Terminal Aerodrome Forecast
Issued by NWS

Home | Current Version | Previous Version | Text Only | Print | Product List | Glossary On
Versions: 1 2 3 4 5 6 7 8 9 10 11 12 13 14 15 16
000
FTUS46 KSTO 200100 AAA
TAFSMF
TAF AMD
KSMF 200147Z 2002/2024 15005KT P6SM BKN007 OVC015
     FM200700 15006KT 3SM -SHRA BR OVC015
     FM201200 16005KT 5SM BR VCSH OVC015=

USA.gov is the U.S. government's official web portal to all federal, state and local government web resources and services.